Time;durP1;ratioP1;P1;durP2;ratioP2;P2;SDS_P1;SDS_P2;PMS_P1;PMS_P2;Temp;Humidity;BMP_temperature;BMP_pressure;BME280_temperature;BME280_humidity;BME280_pressure;Samples;Min_cycle;Max_cycle;Signal;HPM_P1;HPM_P2
2022/10/16 00:00:57;;;;;;;1999.90;999.90;;;14.90;53.20;;;;;;5012596;28;20445;-82
2022/10/16 00:03:23;;;;;;;1999.90;999.90;;;15.00;5.20;;;;;;5012551;28;20038;-82
2022/10/16 00:05:49;;;;;;;1999.90;999.90;;;14.90;1.00;;;;;;5012475;28;20061;-82
2022/10/16 00:08:15;;;;;;;1999.90;999.90;;;15.00;1.00;;;;;;5012604;28;20072;-82
2022/10/16 00:10:40;;;;;;;1999.90;999.90;;;14.90;1.00;;;;;;5012331;28;20049;-82
2022/10/16 00:13:07;;;;;;;1999.90;999.90;;;15.00;1.00;;;;;;5011262;28;20050;-82
2022/10/16 00:15:36;;;;;;;1999.90;999.90;;;14.90;1.00;;;;;;5012352;28;20474;-82
2022/10/16 00:18:03;;;;;;;1999.90;999.90;;;16.10;1.00;;;;;;5012552;28;20133;-82
2022/10/16 00:20:31;;;;;;;1999.90;999.90;;;14.90;1.80;;;;;;5013569;28;20051;-82
2022/10/16 00:22:57;;;;;;;1999.90;999.90;;;14.90;1.00;;;;;;5014829;28;20044;-83
2022/10/16 00:25:23;;;;;;;1999.90;999.90;;;15.20;1.00;;;;;;5015094;28;20509;-82
2022/10/16 00:27:48;;;;;;;1999.90;999.90;;;14.90;1.00;;;;;;5014512;28;20125;-82
2022/10/16 00:30:14;;;;;;;1999.90;999.90;;;15.30;1.00;;;;;;5016236;28;20041;-82
2022/10/16 00:32:40;;;;;;;1999.90;999.90;;;15.00;99.90;;;;;;5014642;28;20084;-83
2022/10/16 00:35:06;;;;;;;1999.90;999.90;;;15.10;99.90;;;;;;5016283;28;20438;-83
2022/10/16 00:37:32;;;;;;;1999.90;999.90;;;15.20;99.90;;;;;;5014937;28;20100;-82
2022/10/16 00:39:57;;;;;;;1999.90;999.90;;;15.30;99.90;;;;;;5015755;28;20721;-83
2022/10/16 00:42:23;;;;;;;1999.90;999.90;;;15.10;53.40;;;;;;5015636;28;20084;-82
2022/10/16 00:44:56;;;;;;;1999.90;999.90;;;15.10;1.00;;;;;;5015729;28;20054;-83
2022/10/16 00:47:32;;;;;;;1999.90;999.90;;;15.20;1.00;;;;;;5016031;28;20060;-82
2022/10/16 00:50:18;;;;;;;1999.90;999.90;;;15.20;99.90;;;;;;5015571;28;20042;-82
2022/10/16 00:52:48;;;;;;;1999.90;999.90;;;15.20;99.90;;;;;;5015636;28;20045;-83
2022/10/16 00:55:14;;;;;;;1999.90;999.90;;;15.20;99.90;;;;;;5015818;28;20049;-82
2022/10/16 00:57:41;;;;;;;1999.90;999.90;;;15.20;99.90;;;;;;5015052;28;20050;-83
2022/10/16 01:00:10;;;;;;;1999.90;999.90;;;15.20;99.90;;;;;;5016063;28;20054;-83
2022/10/16 01:02:36;;;;;;;1999.90;999.90;;;15.20;99.90;;;;;;5015522;28;20050;-83
2022/10/16 01:05:03;;;;;;;1999.90;999.90;;;15.30;99.90;;;;;;5014962;28;20062;-82
2022/10/16 01:07:41;;;;;;;1999.90;999.90;;;15.20;99.90;;;;;;5015524;28;20479;-82
2022/10/16 01:10:22;;;;;;;1999.90;999.90;;;15.20;99.90;;;;;;5015658;28;20128;-83
2022/10/16 01:13:01;;;;;;;1999.90;999.90;;;15.20;99.90;;;;;;5014806;28;20042;-83
2022/10/16 01:15:37;;;;;;;1999.90;999.90;;;15.20;99.90;;;;;;5015497;28;20076;-83
2022/10/16 01:18:32;;;;;;;1999.90;999.90;;;15.20;96.00;;;;;;5015126;28;20042;-83
2022/10/16 01:21:12;;;;;;;1999.90;999.90;;;15.20;18.30;;;;;;5004359;28;20554;-83
2022/10/16 01:23:58;;;;;;;1999.90;999.90;;;15.20;1.00;;;;;;5015117;28;20100;-83
2022/10/16 01:27:00;;;;;;;1999.90;999.90;;;15.30;99.90;;;;;;5015390;28;20042;-83
2022/10/16 01:29:28;;;;;;;1999.90;999.90;;;15.30;1.00;;;;;;5015231;28;20049;-83
2022/10/16 01:31:56;;;;;;;;;;;15.30;1.00;;;;;;5013201;28;20101;-83
2022/10/16 01:34:30;;;;;;;1999.90;999.90;;;15.30;1.00;;;;;;5014924;28;19928;-83
2022/10/16 01:37:11;;;;;;;1999.90;999.90;;;15.40;99.90;;;;;;5014797;28;20046;-83
2022/10/16 01:39:39;;;;;;;1999.90;999.90;;;15.30;99.90;;;;;;5015021;28;20128;-83
2022/10/16 01:42:18;;;;;;;1999.90;999.90;;;15.40;99.90;;;;;;5014172;28;20037;-83
2022/10/16 01:44:47;;;;;;;1999.90;999.90;;;15.40;99.90;;;;;;5014497;28;20050;-83
2022/10/16 01:47:13;;;;;;;1999.90;999.90;;;15.40;99.90;;;;;;5013651;28;20379;-83
2022/10/16 01:49:40;;;;;;;1999.90;999.90;;;15.30;99.90;;;;;;5014831;28;20070;-84
2022/10/16 01:52:12;;;;;;;1999.90;999.90;;;15.40;99.90;;;;;;5014485;28;20050;-83
2022/10/16 01:54:43;;;;;;;1999.90;999.90;;;15.30;99.90;;;;;;5014738;28;20172;-83
2022/10/16 01:57:10;;;;;;;1999.90;999.90;;;15.30;99.90;;;;;;5014114;28;20116;-83
2022/10/16 01:59:40;;;;;;;1999.90;999.90;;;15.20;99.90;;;;;;5013718;28;20107;-83
2022/10/16 02:02:10;;;;;;;1999.90;999.90;;;15.20;99.90;;;;;;5014364;28;20467;-83
2022/10/16 02:04:45;;;;;;;1999.90;999.90;;;15.30;99.90;;;;;;5014633;28;20057;-83
2022/10/16 02:07:11;;;;;;;1999.90;999.90;;;15.30;25.30;;;;;;5013317;28;20050;-82
2022/10/16 02:09:38;;;;;;;1999.90;999.90;;;15.40;21.50;;;;;;5014111;28;20483;-83
2022/10/16 02:12:12;;;;;;;1999.90;999.90;;;15.30;5.30;;;;;;5013772;28;20081;-83
2022/10/16 02:14:38;;;;;;;1999.90;999.90;;;15.30;1.20;;;;;;5014563;28;20133;-83
2022/10/16 02:17:17;;;;;;;1999.90;999.90;;;15.40;1.00;;;;;;5014108;28;20053;-83
2022/10/16 02:19:44;;;;;;;1999.90;999.90;;;15.30;1.00;;;;;;5018416;28;20108;-83
2022/10/16 02:22:17;;;;;;;1999.90;999.90;;;15.40;1.00;;;;;;5017285;28;20050;-83
2022/10/16 02:25:06;;;;;;;1999.90;999.90;;;15.40;1.00;;;;;;5021096;28;20057;-82
2022/10/16 02:27:41;;;;;;;1999.90;999.90;;;15.40;1.00;;;;;;5021795;28;20115;-83
2022/10/16 02:30:34;;;;;;;1999.90;999.90;;;15.40;1.00;;;;;;5020565;28;20478;-83
2022/10/16 02:33:02;;;;;;;1999.90;999.90;;;15.40;1.00;;;;;;5013722;28;20050;-84
2022/10/16 02:35:29;;;;;;;1999.90;999.90;;;15.50;99.90;;;;;;5014349;28;20065;-83
2022/10/16 02:37:57;;;;;;;1999.90;999.90;;;15.50;99.90;;;;;;5012624;28;20085;-84
2022/10/16 02:40:24;;;;;;;1999.90;999.90;;;15.50;99.90;;;;;;5012939;28;20072;-84
2022/10/16 02:42:54;;;;;;;1999.90;999.90;;;15.60;99.90;;;;;;5012795;28;20045;-80
2022/10/16 02:45:21;;;;;;;1999.90;999.90;;;15.50;99.90;;;;;;5013873;28;20149;-85
2022/10/16 02:47:47;;;;;;;1999.90;999.90;;;15.60;99.90;;;;;;5013583;28;20086;-84
2022/10/16 02:50:12;;;;;;;1999.90;999.90;;;15.60;99.90;;;;;;4996131;28;20089;-85
2022/10/16 02:52:38;;;;;;;1999.90;999.90;;;15.60;99.90;;;;;;5013485;28;20042;-84
2022/10/16 02:55:04;;;;;;;1999.90;999.90;;;15.60;99.90;;;;;;5013343;28;20053;-84
2022/10/16 02:57:31;;;;;;;1999.90;999.90;;;15.50;99.90;;;;;;5013186;28;20416;-85
2022/10/16 02:59:57;;;;;;;1999.90;999.90;;;15.60;99.90;;;;;;5012219;28;20371;-86
2022/10/16 03:02:22;;;;;;;1999.90;999.90;;;15.60;99.90;;;;;;5013346;28;20079;-85
2022/10/16 03:04:48;;;;;;;1999.90;999.90;;;15.60;99.90;;;;;;5013155;28;20057;-86
2022/10/16 03:07:14;;;;;;;1999.90;999.90;;;15.60;99.90;;;;;;5028519;28;20089;-85
2022/10/16 03:09:40;;;;;;;1999.90;999.90;;;15.60;99.90;;;;;;5013378;28;20112;-86
2022/10/16 03:12:06;;;;;;;1999.90;999.90;;;15.60;99.90;;;;;;5012609;28;20050;-87
2022/10/16 03:14:32;;;;;;;1999.90;999.90;;;15.60;99.90;;;;;;5012047;28;20053;-87
2022/10/16 03:16:58;;;;;;;1999.90;999.90;;;15.60;99.90;;;;;;5011942;28;20050;-88
2022/10/16 03:19:24;;;;;;;1999.90;999.90;;;15.60;99.90;;;;;;5012294;28;20046;-88
2022/10/16 03:21:50;;;;;;;1999.90;999.90;;;15.60;99.90;;;;;;5012161;28;20046;-87
2022/10/16 03:24:15;;;;;;;1999.90;999.90;;;15.60;99.90;;;;;;5012812;28;20041;-88
2022/10/16 03:26:41;;;;;;;1999.90;999.90;;;15.60;99.90;;;;;;5012768;28;20069;-87
2022/10/16 03:29:07;;;;;;;1999.90;999.90;;;15.60;99.90;;;;;;5013107;28;20046;-87
2022/10/16 03:31:32;;;;;;;1999.90;999.90;;;15.50;99.90;;;;;;5011867;28;20041;-88
2022/10/16 03:33:58;;;;;;;1999.90;999.90;;;15.50;99.90;;;;;;5012661;28;20470;-87
2022/10/16 03:36:24;;;;;;;1999.90;999.90;;;15.40;99.90;;;;;;5012071;28;20089;-88
2022/10/16 03:38:49;;;;;;;1999.90;999.90;;;15.50;99.90;;;;;;5011906;28;20053;-89
2022/10/16 03:41:15;;;;;;;1999.90;999.90;;;15.40;99.90;;;;;;5012647;28;20056;-88
2022/10/16 03:43:41;;;;;;;1999.90;999.90;;;15.40;99.90;;;;;;5012351;28;20053;-89
2022/10/16 03:46:07;;;;;;;1999.90;999.90;;;15.40;99.90;;;;;;5012879;28;20041;-90
2022/10/16 03:48:32;;;;;;;1999.90;999.90;;;15.40;99.90;;;;;;5012709;28;20046;-89
2022/10/16 03:50:58;;;;;;;1999.90;999.90;;;15.40;99.90;;;;;;5012833;28;20056;-89
2022/10/16 03:53:24;;;;;;;1999.90;999.90;;;15.40;99.90;;;;;;5012764;28;20037;-89
2022/10/16 03:55:50;;;;;;;1999.90;999.90;;;15.40;99.90;;;;;;5014714;28;20041;-89
2022/10/16 03:58:16;;;;;;;1999.90;999.90;;;15.40;99.90;;;;;;4998879;28;20394;-90
2022/10/16 04:00:43;;;;;;;1999.90;999.90;;;15.30;99.90;;;;;;5016919;28;20077;-90
2022/10/16 04:03:09;;;;;;;1999.90;999.90;;;15.50;99.90;;;;;;5016356;28;20556;-89
2022/10/16 04:05:34;;;;;;;1999.90;999.90;;;15.30;99.90;;;;;;5015106;28;20058;-89
2022/10/16 04:08:00;;;;;;;1999.90;999.90;;;15.30;99.90;;;;;;5016418;28;20108;-89
2022/10/16 04:10:25;;;;;;;1999.90;999.90;;;15.40;99.90;;;;;;4999311;28;20089;-88
2022/10/16 04:12:51;;;;;;;1999.90;999.90;;;15.40;99.90;;;;;;5016231;28;20467;-90
2022/10/16 04:15:17;;;;;;;1999.90;999.90;;;15.40;99.90;;;;;;5015186;28;20453;-90
2022/10/16 04:17:43;;;;;;;1999.90;999.90;;;15.40;99.90;;;;;;5016447;28;20041;-90
2022/10/16 04:20:08;;;;;;;1999.90;999.90;;;15.40;99.90;;;;;;5015139;28;20053;-91
2022/10/16 04:22:34;;;;;;;1999.90;999.90;;;15.40;99.90;;;;;;5015229;28;20050;-89
2022/10/16 04:25:00;;;;;;;1999.90;999.90;;;15.30;99.90;;;;;;5016436;28;20108;-91
2022/10/16 04:27:25;;;;;;;1999.90;999.90;;;15.00;99.90;;;;;;5015977;28;20453;-91
2022/10/16 04:29:51;;;;;;;1999.90;999.90;;;15.30;99.90;;;;;;5016459;28;20046;-92
2022/10/16 04:32:17;;;;;;;1999.90;999.90;;;15.30;99.90;;;;;;5014925;28;20050;-91
2022/10/16 04:34:43;;;;;;;1999.90;999.90;;;15.30;99.90;;;;;;5015119;28;20053;-91
2022/10/16 04:37:09;;;;;;;1999.90;999.90;;;15.20;1.00;;;;;;5014446;28;20498;-91
2022/10/16 04:39:34;;;;;;;1999.90;999.90;;;15.20;1.00;;;;;;5015110;28;20056;-91
2022/10/16 04:42:00;;;;;;;1999.90;999.90;;;15.10;1.00;;;;;;5015883;28;20147;-91
2022/10/16 04:44:26;;;;;;;1999.90;999.90;;;15.20;4.90;;;;;;5015936;28;20052;-92
2022/10/16 04:46:51;;;;;;;1999.90;999.90;;;15.20;51.80;;;;;;5016041;28;20406;-91
2022/10/16 04:49:17;;;;;;;1999.90;999.90;;;15.20;17.70;;;;;;5014491;28;20398;-91
2022/10/16 04:51:43;;;;;;;1999.90;999.90;;;15.20;12.00;;;;;;5014741;28;20044;-91
2022/10/16 04:54:09;;;;;;;1999.90;999.90;;;15.40;1.00;;;;;;5014661;28;20057;-92
2022/10/16 04:56:42;;;;;;;1999.90;999.90;;;15.40;1.00;;;;;;5015562;28;20503;-86
2022/10/16 04:59:08;;;;;;;1999.90;999.90;;;15.40;1.00;;;;;;5015787;28;20092;-92
2022/10/16 05:01:34;;;;;;;1999.90;999.90;;;15.50;1.00;;;;;;5015733;28;20053;-84
2022/10/16 05:04:00;;;;;;;1999.90;999.90;;;15.50;1.00;;;;;;5015594;28;20096;-92
2022/10/16 05:06:26;;;;;;;1999.90;999.90;;;15.40;1.00;;;;;;5015394;28;20057;-92
2022/10/16 05:08:51;;;;;;;1999.90;999.90;;;15.40;1.00;;;;;;5014767;28;20050;-91
2022/10/16 05:11:17;;;;;;;1999.90;999.90;;;15.50;1.00;;;;;;5015176;28;20491;-91
2022/10/16 05:13:43;;;;;;;1999.90;999.90;;;15.50;1.00;;;;;;5015671;28;20061;-92
2022/10/16 05:16:08;;;;;;;1999.90;999.90;;;15.50;1.00;;;;;;5015297;28;20049;-91
2022/10/16 05:18:34;;;;;;;1999.90;999.90;;;15.60;1.00;;;;;;5015385;28;20390;-92
2022/10/16 05:21:00;;;;;;;1999.90;999.90;;;15.60;1.00;;;;;;5015473;28;20045;-93
2022/10/16 05:23:26;;;;;;;1999.90;999.90;;;15.60;1.00;;;;;;4997521;28;20605;-93
2022/10/16 05:25:57;;;;;;;1999.90;999.90;;;15.60;1.00;;;;;;5015477;28;20457;-92
2022/10/16 05:28:27;;;;;;;1999.90;999.90;;;15.60;1.00;;;;;;5013597;28;20054;-89
2022/10/16 05:30:53;;;;;;;1999.90;999.90;;;15.60;1.00;;;;;;4998012;28;20315;-89
2022/10/16 05:33:24;;;;;;;1999.90;999.90;;;15.70;99.90;;;;;;5013682;28;20042;-86
2022/10/16 05:35:51;;;;;;;1999.90;999.90;;;15.60;99.90;;;;;;5015154;28;20046;-87
2022/10/16 05:38:17;;;;;;;1999.90;999.90;;;15.60;99.90;;;;;;5014653;28;20494;-87
2022/10/16 05:40:43;;;;;;;1999.90;999.90;;;15.70;99.90;;;;;;5014039;28;20048;-87
2022/10/16 05:43:09;;;;;;;1999.90;999.90;;;15.60;99.90;;;;;;4997174;28;20050;-87
2022/10/16 05:45:35;;;;;;;1999.90;999.90;;;15.60;1.00;;;;;;5014896;28;20046;-86
2022/10/16 05:48:00;;;;;;;1999.90;999.90;;;15.60;1.00;;;;;;5014855;28;20052;-87
2022/10/16 05:50:27;;;;;;;1999.90;999.90;;;15.60;1.00;;;;;;5014564;28;20050;-86
2022/10/16 05:52:52;;;;;;;1999.90;999.90;;;15.60;1.00;;;;;;5014607;28;20049;-87
2022/10/16 05:55:18;;;;;;;1999.90;999.90;;;15.60;1.00;;;;;;5014073;28;20061;-87
2022/10/16 05:57:44;;;;;;;1999.90;999.90;;;15.60;1.00;;;;;;5013049;28;20045;-87
2022/10/16 06:00:10;;;;;;;1999.90;999.90;;;15.60;1.00;;;;;;5014680;28;20598;-87
2022/10/16 06:02:36;;;;;;;1999.90;999.90;;;15.60;1.00;;;;;;4996815;28;20041;-87
2022/10/16 06:05:01;;;;;;;1999.90;999.90;;;15.60;1.00;;;;;;5014467;28;20058;-88
2022/10/16 06:07:27;;;;;;;1999.90;999.90;;;15.60;1.00;;;;;;5013981;28;20056;-87
2022/10/16 06:09:53;;;;;;;1999.90;999.90;;;15.60;1.00;;;;;;5014487;28;20394;-87
2022/10/16 06:12:19;;;;;;;1999.90;999.90;;;15.80;99.90;;;;;;5013699;28;20061;-87
2022/10/16 06:14:48;;;;;;;1999.90;999.90;;;15.80;99.90;;;;;;5014319;28;20129;-86
2022/10/16 06:17:15;;;;;;;1999.90;999.90;;;15.80;99.90;;;;;;5013378;28;20089;-86
2022/10/16 06:19:41;;;;;;;1999.90;999.90;;;15.80;99.90;;;;;;5014539;28;20390;-86
2022/10/16 06:22:07;;;;;;;1999.90;999.90;;;15.80;99.90;;;;;;5013265;28;20085;-89
2022/10/16 06:24:32;;;;;;;1999.90;999.90;;;15.80;99.90;;;;;;5012658;28;20509;-88
2022/10/16 06:26:58;;;;;;;1999.90;999.90;;;15.80;99.90;;;;;;5013438;28;20058;-87
2022/10/16 06:29:24;;;;;;;1999.90;999.90;;;15.80;99.90;;;;;;5012882;28;20050;-87
2022/10/16 06:31:49;;;;;;;1999.90;999.90;;;15.80;99.90;;;;;;5013905;28;20386;-86
2022/10/16 06:34:15;;;;;;;1999.90;999.90;;;15.80;99.90;;;;;;5013952;28;20041;-86
2022/10/16 06:36:41;;;;;;;1999.90;999.90;;;15.90;99.90;;;;;;5013872;28;20088;-87
2022/10/16 06:39:07;;;;;;;1999.90;999.90;;;15.70;99.90;;;;;;5012846;28;20471;-87
2022/10/16 06:41:33;;;;;;;1999.90;999.90;;;15.70;99.90;;;;;;5013588;28;20050;-87
2022/10/16 06:43:59;;;;;;;1999.90;999.90;;;15.70;99.90;;;;;;5013729;28;20390;-87
2022/10/16 06:46:26;;;;;;;1999.90;999.90;;;15.80;99.90;;;;;;5013539;28;20042;-88
2022/10/16 06:48:53;;;;;;;1999.90;999.90;;;15.80;99.90;;;;;;5013640;28;20441;-88
2022/10/16 06:51:23;;;;;;;1999.90;999.90;;;15.90;99.90;;;;;;5012185;28;20053;-86
2022/10/16 06:53:53;;;;;;;1999.90;999.90;;;15.90;99.90;;;;;;5013620;28;20042;-87
2022/10/16 06:56:21;;;;;;;1999.90;999.90;;;15.90;99.90;;;;;;5013294;28;20053;-87
2022/10/16 06:58:48;;;;;;;;;;;15.90;99.90;;;;;;5013629;28;20084;-87
2022/10/16 07:01:15;;;;;;;1999.90;999.90;;;15.90;99.90;;;;;;4996049;28;19921;-88
2022/10/16 07:03:42;;;;;;;1999.90;999.90;;;15.90;99.90;;;;;;5013008;28;20181;-87
2022/10/16 07:06:10;;;;;;;1999.90;999.90;;;15.90;99.90;;;;;;5013661;28;20058;-88
2022/10/16 07:08:37;;;;;;;1999.90;999.90;;;15.90;99.90;;;;;;5013055;28;20081;-87
2022/10/16 07:11:05;;;;;;;1999.90;999.90;;;15.90;99.90;;;;;;5013466;28;20119;-87
2022/10/16 07:13:36;;;;;;;1999.90;999.90;;;16.00;99.90;;;;;;5012635;28;20046;-88
2022/10/16 07:16:12;;;;;;;1999.90;999.90;;;16.00;99.90;;;;;;5013276;28;20046;-86
2022/10/16 07:18:40;;;;;;;1999.90;999.90;;;16.00;99.90;;;;;;5011795;28;20046;-87
2022/10/16 07:21:10;;;;;;;1999.90;999.90;;;16.00;99.90;;;;;;5013383;28;20478;-88
2022/10/16 07:23:35;;;;;;;1999.90;999.90;;;16.10;99.90;;;;;;5011290;28;20050;-87
2022/10/16 07:26:02;;;;;;;1999.90;999.90;;;16.10;99.90;;;;;;5013193;28;20549;-87
2022/10/16 07:28:28;;;;;;;1999.90;999.90;;;16.20;99.90;;;;;;5012027;28;20050;-87
2022/10/16 07:30:54;;;;;;;1999.90;999.90;;;16.20;99.90;;;;;;5011310;28;20111;-88
2022/10/16 07:33:20;;;;;;;1999.90;999.90;;;16.20;99.90;;;;;;5012984;28;20045;-87
2022/10/16 07:35:54;;;;;;;1999.90;999.90;;;16.20;99.90;;;;;;5011692;28;20089;-88
2022/10/16 07:38:21;;;;;;;1999.90;999.90;;;16.20;99.90;;;;;;5012955;28;20045;-87
2022/10/16 07:40:47;;;;;;;1999.90;999.90;;;16.20;99.90;;;;;;5012747;28;20089;-87
2022/10/16 07:43:13;;;;;;;1999.90;999.90;;;16.20;99.90;;;;;;5012513;28;20138;-87
2022/10/16 07:45:48;;;;;;;1999.90;999.90;;;16.20;99.90;;;;;;5011717;28;20056;-89
2022/10/16 07:48:14;;;;;;;1999.90;999.90;;;16.20;99.90;;;;;;5011901;28;20092;-88
2022/10/16 07:50:40;;;;;;;1999.90;999.90;;;16.20;99.90;;;;;;5011596;28;20073;-88
2022/10/16 07:53:06;;;;;;;1999.90;999.90;;;16.20;99.90;;;;;;5012824;28;20046;-87
2022/10/16 07:55:31;;;;;;;1999.90;999.90;;;16.30;99.90;;;;;;5011541;28;20053;-87
2022/10/16 07:57:57;;;;;;;1999.90;999.90;;;16.30;99.90;;;;;;5012640;28;20054;-88
2022/10/16 08:00:23;;;;;;;1999.90;999.90;;;16.30;99.90;;;;;;5011823;28;20042;-86
2022/10/16 08:02:48;;;;;;;1999.90;999.90;;;16.30;99.90;;;;;;5010864;28;20046;-88
2022/10/16 08:05:14;;;;;;;1999.90;999.90;;;16.40;99.90;;;;;;5012832;28;20054;-88
2022/10/16 08:07:40;;;;;;;1999.90;999.90;;;16.50;99.90;;;;;;5011230;28;20486;-88
2022/10/16 08:10:06;;;;;;;1999.90;999.90;;;16.60;99.90;;;;;;5011475;28;20124;-87
2022/10/16 08:12:31;;;;;;;1999.90;999.90;;;16.60;99.90;;;;;;5010936;28;20390;-87
2022/10/16 08:14:57;;;;;;;1999.90;999.90;;;16.60;83.70;;;;;;5011763;28;20092;-87
2022/10/16 08:17:23;;;;;;;1999.90;999.90;;;16.70;71.90;;;;;;5011557;28;20046;-88
2022/10/16 08:19:48;;;;;;;1999.90;999.90;;;16.80;1.00;;;;;;5012292;28;20129;-88
2022/10/16 08:22:14;;;;;;;1999.90;999.90;;;16.90;1.00;;;;;;5012583;28;20371;-87
2022/10/16 08:24:40;;;;;;;1999.90;999.90;;;17.00;1.00;;;;;;5027467;28;20387;-87
2022/10/16 08:27:08;;;;;;;1999.90;999.90;;;17.00;1.00;;;;;;5011089;28;20100;-86
2022/10/16 08:29:34;;;;;;;;;;;17.00;1.00;;;;;;5012700;28;20056;-88
2022/10/16 08:32:00;;;;;;;1999.90;999.90;;;17.30;99.90;;;;;;5011183;28;20361;-87
2022/10/16 08:34:26;;;;;;;1999.90;999.90;;;17.90;99.90;;;;;;5012527;28;20383;-87
2022/10/16 08:36:54;;;;;;;1999.90;999.90;;;18.40;99.90;;;;;;5010638;28;20042;-88
2022/10/16 08:39:19;;;;;;;1999.90;999.90;;;18.10;99.90;;;;;;5012415;28;20049;-88
2022/10/16 08:42:23;;;;;;;1999.90;999.90;;;18.20;99.90;;;;;;5013267;28;20050;-88
2022/10/16 08:45:10;;;;;;;1999.90;999.90;;;17.90;99.90;;;;;;5015707;28;20112;-87
2022/10/16 08:47:58;;;;;;;1999.90;999.90;;;17.60;99.90;;;;;;5015494;28;20445;-87
2022/10/16 08:50:27;;;;;;;1999.90;999.90;;;17.30;99.90;;;;;;5016118;28;20050;-87
2022/10/16 08:52:55;;;;;;;1999.90;999.90;;;17.50;99.90;;;;;;5015557;28;20048;-87
2022/10/16 08:55:43;;;;;;;1999.90;999.90;;;18.10;99.90;;;;;;5016117;28;20132;-87
2022/10/16 08:58:14;;;;;;;1999.90;999.90;;;18.50;99.90;;;;;;5015481;28;20049;-87
2022/10/16 09:00:41;;;;;;;1999.90;999.90;;;19.30;99.90;;;;;;5015578;28;20042;-86
2022/10/16 09:03:16;;;;;;;1999.90;999.90;;;18.90;99.90;;;;;;5014425;28;20073;-87
2022/10/16 09:06:03;;;;;;;1999.90;999.90;;;19.40;99.90;;;;;;5014298;28;20141;-87
2022/10/16 09:08:29;;;;;;;1999.90;999.90;;;20.00;96.60;;;;;;5015521;28;20046;-86
2022/10/16 09:11:04;;;;;;;1999.90;999.90;;;19.80;67.80;;;;;;5014150;28;20045;-87
2022/10/16 09:13:48;;;;;;;1999.90;999.90;;;20.10;41.20;;;;;;5014016;28;20078;-86
2022/10/16 09:16:24;;;;;;;1999.90;999.90;;;20.20;16.50;;;;;;5014385;28;20483;-87
2022/10/16 09:19:07;;;;;;;1999.90;999.90;;;20.60;1.00;;;;;;5015466;28;20113;-88
2022/10/16 09:21:38;;;;;;;1664.45;769.20;;;20.60;1.00;;;;;;5015430;28;20046;-88
2022/10/16 09:24:18;;;;;;;1999.90;999.90;;;21.20;1.00;;;;;;4997786;28;20046;-86
2022/10/16 09:26:45;;;;;;;1999.90;999.90;;;21.10;1.00;;;;;;5013583;28;20085;-87
2022/10/16 09:29:16;;;;;;;1999.90;999.90;;;20.00;1.00;;;;;;5015422;28;20050;-86
2022/10/16 09:31:43;;;;;;;1999.90;999.90;;;20.00;1.00;;;;;;5013588;28;20292;-85
2022/10/16 09:34:26;;;;;;;1999.90;999.90;;;19.70;1.00;;;;;;5013938;28;20053;-86
2022/10/16 09:36:52;;;;;;;1999.90;999.90;;;19.10;1.00;;;;;;4997487;28;20061;-85
2022/10/16 09:39:17;;;;;;;1999.90;999.90;;;18.80;1.00;;;;;;5015135;28;20096;-86
2022/10/16 09:41:45;;;;;;;1999.90;999.90;;;18.80;1.00;;;;;;5013346;28;20046;-87
2022/10/16 09:44:23;;;;;;;1999.90;999.90;;;18.80;1.00;;;;;;5014840;28;20049;-86
2022/10/16 09:46:49;;;;;;;1882.43;780.33;;;18.70;1.00;;;;;;5013339;28;20050;-88
2022/10/16 09:49:26;;;;;;;1999.90;999.90;;;18.60;1.00;;;;;;5013826;28;20050;-86
2022/10/16 09:52:10;;;;;;;1999.90;999.90;;;18.60;1.00;;;;;;5014246;28;20103;-87
2022/10/16 09:54:36;;;;;;;1999.90;999.90;;;18.60;1.00;;;;;;5014469;28;20482;-86
2022/10/16 09:57:07;;;;;;;1999.90;999.90;;;18.60;1.00;;;;;;5014379;28;20099;-86
2022/10/16 09:59:33;;;;;;;1999.90;999.90;;;18.50;1.00;;;;;;5014982;28;20046;-87
2022/10/16 10:02:04;;;;;;;1999.90;999.90;;;18.40;1.00;;;;;;5013103;28;20050;-87
2022/10/16 10:04:41;;;;;;;1999.90;999.90;;;18.20;1.00;;;;;;5014470;28;20062;-87
2022/10/16 10:07:18;;;;;;;1999.90;999.90;;;18.20;1.00;;;;;;5014599;28;20054;-87
2022/10/16 10:09:45;;;;;;;1999.90;999.90;;;18.30;1.00;;;;;;5014336;28;20046;-86
2022/10/16 10:12:24;;;;;;;1999.90;999.90;;;18.30;1.00;;;;;;5014157;28;20398;-87
2022/10/16 10:14:57;;;;;;;1999.90;999.90;;;18.40;1.00;;;;;;5014088;28;20050;-87
2022/10/16 10:17:25;;;;;;;1999.90;999.90;;;18.30;1.00;;;;;;5014442;28;20045;-88
2022/10/16 10:20:02;;;;;;;1999.90;999.90;;;18.40;1.00;;;;;;5013950;28;20057;-87
2022/10/16 10:22:45;;;;;;;1999.90;999.90;;;18.50;1.00;;;;;;5014200;28;20053;-87
2022/10/16 10:25:11;;;;;;;1999.90;999.90;;;18.70;1.00;;;;;;5013369;28;20041;-87
2022/10/16 10:27:39;;;;;;;1999.90;999.90;;;18.60;1.00;;;;;;5012732;28;20371;-85
2022/10/16 10:30:42;;;;;;;1535.45;755.47;;;18.60;1.00;;;;;;5014269;28;20049;-86
2022/10/16 10:33:35;;;;;;;1999.90;999.90;;;18.60;1.00;;;;;;4984501;28;20058;-87
2022/10/16 10:36:23;;;;;;;1999.90;999.90;;;18.60;1.00;;;;;;5013838;28;20042;-86
2022/10/16 10:38:59;;;;;;;1999.90;999.90;;;18.70;1.00;;;;;;5014299;28;20380;-87
2022/10/16 10:41:25;;;;;;;1999.90;999.90;;;18.70;1.00;;;;;;5014153;28;20471;-86
2022/10/16 10:44:01;;;;;;;1999.90;999.90;;;18.70;1.00;;;;;;5013136;28;20045;-86
2022/10/16 10:46:40;;;;;;;1999.90;999.90;;;18.70;1.00;;;;;;5014062;28;20133;-87
2022/10/16 10:49:15;;;;;;;1999.90;999.90;;;18.70;1.00;;;;;;5012912;28;20395;-87
2022/10/16 10:52:02;;;;;;;1999.90;999.90;;;18.80;1.00;;;;;;5013909;28;20045;-85
2022/10/16 10:54:39;;;;;;;1999.90;999.90;;;18.70;1.00;;;;;;5013841;28;20052;-87
2022/10/16 10:57:42;;;;;;;1999.90;999.90;;;18.60;1.00;;;;;;5013313;28;20462;-87
2022/10/16 11:00:27;;;;;;;1999.90;999.90;;;18.60;1.00;;;;;;4996424;28;20050;-86
2022/10/16 11:03:13;;;;;;;1999.90;999.90;;;18.60;1.00;;;;;;5013207;28;20125;-86
2022/10/16 11:05:59;;;;;;;1999.90;999.90;;;18.70;1.00;;;;;;5012289;28;20088;-86
2022/10/16 11:08:34;;;;;;;1999.90;999.90;;;18.60;1.00;;;;;;5013547;28;20107;-86
2022/10/16 11:11:09;;;;;;;1999.90;999.90;;;18.50;1.00;;;;;;5014104;28;20061;-87
2022/10/16 11:13:37;;;;;;;1999.90;999.90;;;18.40;1.00;;;;;;5012302;28;20092;-86
2022/10/16 11:16:19;;;;;;;1999.90;999.90;;;18.30;1.00;;;;;;5012461;28;20634;-86
2022/10/16 11:19:09;;;;;;;1999.90;999.90;;;18.20;1.00;;;;;;5013368;28;20046;-86
2022/10/16 11:21:48;;;;;;;1999.90;999.90;;;18.30;1.00;;;;;;5013435;28;20054;-86
2022/10/16 11:24:41;;;;;;;1999.90;999.90;;;18.40;1.00;;;;;;5012225;28;20046;-87
2022/10/16 11:27:11;;;;;;;1999.90;999.90;;;18.40;1.00;;;;;;5012599;28;20046;-86
2022/10/16 11:29:58;;;;;;;1999.90;999.90;;;18.30;1.00;;;;;;5012429;28;20467;-88
2022/10/16 11:32:48;;;;;;;1999.90;999.90;;;18.20;1.00;;;;;;5013044;28;20125;-86
2022/10/16 11:35:23;;;;;;;1999.90;999.90;;;18.20;1.00;;;;;;5012296;28;20360;-85
2022/10/16 11:37:52;;;;;;;1999.90;999.90;;;18.20;1.00;;;;;;5012644;28;20493;-86
2022/10/16 11:40:28;;;;;;;1999.90;999.90;;;18.10;1.00;;;;;;5013076;28;20049;-85
2022/10/16 11:43:17;;;;;;;1999.90;999.90;;;18.10;1.00;;;;;;5012280;28;20038;-85
2022/10/16 11:45:52;;;;;;;1999.90;999.90;;;18.00;1.00;;;;;;5013104;28;20054;-86
2022/10/16 11:48:42;;;;;;;1999.90;999.90;;;18.10;1.00;;;;;;5011829;28;20133;-86
2022/10/16 11:51:18;;;;;;;1999.90;999.90;;;18.10;1.00;;;;;;5011766;28;20057;-86
2022/10/16 11:54:05;;;;;;;1999.90;999.90;;;18.20;1.00;;;;;;5011805;28;20054;-86
2022/10/16 11:56:36;;;;;;;1999.90;999.90;;;18.30;1.00;;;;;;5011992;28;20066;-86
2022/10/16 11:59:26;;;;;;;1999.90;999.90;;;18.40;1.00;;;;;;5011236;28;20180;-87
2022/10/16 12:02:26;;;;;;;1999.90;999.90;;;18.50;1.00;;;;;;5012453;28;20504;-86
2022/10/16 12:05:06;;;;;;;1999.90;999.90;;;18.50;1.00;;;;;;4993971;28;20054;-87
2022/10/16 12:07:47;;;;;;;1999.90;999.90;;;18.50;1.00;;;;;;5012640;28;20061;-86
2022/10/16 12:10:27;;;;;;;1999.90;999.90;;;18.30;1.00;;;;;;5012476;28;20474;-86
2022/10/16 12:12:53;;;;;;;1999.90;999.90;;;18.30;99.90;;;;;;5011991;28;20081;-86
2022/10/16 12:15:21;;;;;;;1999.90;999.90;;;18.30;1.00;;;;;;5012055;28;20438;-86
2022/10/16 12:17:47;;;;;;;1999.90;534.13;;;18.20;99.90;;;;;;5016385;28;20046;-87
2022/10/16 12:20:13;;;;;;;1999.90;999.90;;;18.30;99.90;;;;;;5015086;28;20045;-86